Time;durP1;ratioP1;P1;durP2;ratioP2;P2;SDS_P1;SDS_P2;PMS_P1;PMS_P2;Temp;Humidity;BMP_temperature;BMP_pressure;BME280_temperature;BME280_humidity;BME280_pressure;Samples;Min_cycle;Max_cycle;Signal;HPM_P1;HPM_P2
2022/04/10 00:01:24;;;;;;;3.75;1.42;;;;;;;26.00;27.60;101710.41;4936993;29;20038;-48
2022/04/10 00:03:52;;;;;;;2.65;1.10;;;;;;;25.91;27.85;101699.72;4937158;29;20024;-44
2022/04/10 00:06:21;;;;;;;2.67;1.38;;;;;;;25.78;27.88;101683.75;4936263;29;20043;-44
2022/04/10 00:08:50;;;;;;;2.22;1.30;;;;;;;26.01;27.89;101713.91;4935659;29;20035;-44
2022/04/10 00:11:18;;;;;;;2.38;1.50;;;;;;;26.00;27.57;101707.78;4919013;29;20031;-44
2022/04/10 00:13:47;;;;;;;2.65;1.50;;;;;;;25.93;27.83;101703.28;4936586;29;20031;-46
2022/04/10 00:16:15;;;;;;;2.42;1.63;;;;;;;25.91;27.70;101700.63;4936376;29;20024;-48
2022/04/10 00:18:43;;;;;;;2.03;1.30;;;;;;;25.88;27.58;101700.56;4936945;29;20032;-46
2022/04/10 00:21:13;;;;;;;1.58;1.30;;;;;;;25.93;27.59;101696.28;4936647;29;20039;-44
2022/04/10 00:23:41;;;;;;;4.07;1.67;;;;;;;25.81;27.91;101700.44;4936287;29;20180;-45
2022/04/10 00:26:11;;;;;;;2.13;1.42;;;;;;;25.86;27.77;101697.03;4936231;29;20038;-44
2022/04/10 00:28:40;;;;;;;2.17;1.40;;;;;;;25.92;27.62;101691.88;4936521;29;20039;-43
2022/04/10 00:31:09;;;;;;;2.97;1.30;;;;;;;25.99;27.46;101690.25;4919808;29;20060;-43
2022/04/10 00:33:36;;;;;;;2.88;1.60;;;;;;;25.88;27.84;101687.44;4936461;29;20064;-43
2022/04/10 00:36:05;;;;;;;3.58;1.60;;;;;;;25.96;27.56;101690.19;4936332;29;20027;-44
2022/04/10 00:38:33;;;;;;;2.85;1.63;;;;;;;25.94;27.58;101691.91;4936179;29;20527;-43
2022/04/10 00:41:02;;;;;;;4.00;1.60;;;;;;;25.88;27.91;101694.44;4936170;29;20039;-44
2022/04/10 00:43:32;;;;;;;4.80;1.55;;;;;;;25.79;27.92;101688.16;4936110;29;20375;-46
2022/04/10 00:46:01;;;;;;;2.95;1.45;;;;;;;25.82;27.88;101689.94;4936059;29;20028;-44
2022/04/10 00:48:29;;;;;;;3.13;1.85;;;;;;;25.72;27.88;101681.06;4918866;29;20031;-44
2022/04/10 00:51:40;;;;;;;2.25;1.40;;;;;;;25.82;27.75;101681.19;4936020;29;20035;-44
2022/04/10 00:53:46;;;;;;;2.78;1.60;;;;;;;25.80;27.44;101675.94;4919023;29;20508;-46
2022/04/10 00:56:14;;;;;;;4.32;1.92;;;;;;;25.84;27.88;101672.47;4919352;29;20043;-47
2022/04/10 00:58:43;;;;;;;1.65;1.23;;;;;;;25.87;27.71;101675.16;4935986;29;20059;-44
2022/04/10 01:01:12;;;;;;;2.45;1.70;;;;;;;25.83;27.80;101672.44;4936174;29;20110;-43
2022/04/10 01:03:40;;;;;;;2.97;1.50;;;;;;;25.74;27.95;101667.94;4936380;29;20052;-43
2022/04/10 01:06:09;;;;;;;2.53;1.50;;;;;;;25.76;27.93;101664.47;4935832;29;20043;-44
2022/04/10 01:08:37;;;;;;;5.30;1.98;;;;;;;25.68;27.76;101655.56;4936022;29;20028;-46
2022/04/10 01:11:08;;;;;;;5.32;1.60;;;;;;;25.68;27.91;101646.78;4919058;29;20036;-44
2022/04/10 01:13:36;;;;;;;2.53;1.70;;;;;;;25.75;27.97;101648.69;4918990;29;20128;-44
2022/04/10 01:16:03;;;;;;;2.83;1.50;;;;;;;25.68;27.85;101642.44;4919027;29;20032;-45
2022/04/10 01:18:32;;;;;;;2.90;1.58;;;;;;;25.69;27.84;101640.69;4935829;29;20470;-45
2022/04/10 01:21:03;;;;;;;3.92;1.80;;;;;;;25.74;27.84;101645.16;4936069;29;20036;-44
2022/04/10 01:23:32;;;;;;;3.55;1.85;;;;;;;25.73;27.82;101634.63;4935760;29;20036;-44
2022/04/10 01:26:01;;;;;;;2.15;1.55;;;;;;;25.70;27.47;101642.44;4935420;29;20425;-44
2022/04/10 01:28:29;;;;;;;3.92;1.88;;;;;;;25.69;27.64;101630.16;4935929;29;20390;-44
2022/04/10 01:30:57;;;;;;;2.35;1.60;;;;;;;25.65;27.80;101625.75;4933797;29;20142;-50
2022/04/10 01:33:26;;;;;;;2.72;1.63;;;;;;;25.61;28.04;101628.31;4899851;29;20390;-45
2022/04/10 01:35:55;;;;;;;2.65;1.75;;;;;;;25.62;27.75;101621.31;4916151;29;20499;-44
2022/04/10 01:38:24;;;;;;;2.47;1.50;;;;;;;25.60;28.13;101616.03;4916920;29;20115;-48
2022/04/10 01:40:52;;;;;;;2.08;1.35;;;;;;;25.61;27.96;101620.44;4916912;29;20107;-44
2022/04/10 01:43:20;;;;;;;2.88;1.85;;;;;;;25.59;27.68;101622.16;4916702;29;20471;-50
2022/04/10 01:45:49;;;;;;;3.78;1.73;;;;;;;25.61;28.02;101611.66;4916598;29;20028;-44
2022/04/10 01:48:17;;;;;;;2.65;1.52;;;;;;;25.62;27.60;101619.59;4916729;29;20043;-44
2022/04/10 01:50:46;;;;;;;4.38;1.83;;;;;;;25.60;27.93;101612.50;4916839;29;20032;-49
2022/04/10 01:53:14;;;;;;;2.65;1.50;;;;;;;25.58;27.96;101612.50;4916439;29;20034;-44
2022/04/10 01:55:43;;;;;;;1.98;1.52;;;;;;;25.52;28.00;101607.13;4916801;29;20470;-45
2022/04/10 01:58:11;;;;;;;3.50;1.60;;;;;;;25.55;27.68;101601.94;4916539;29;20490;-48
2022/04/10 02:00:40;;;;;;;4.15;2.15;;;;;;;25.60;27.79;101600.28;4916818;29;20052;-44
2022/04/10 02:03:08;;;;;;;1.90;1.48;;;;;;;25.57;27.62;101599.31;4916377;29;20032;-47
2022/04/10 02:05:37;;;;;;;2.20;1.55;;;;;;;25.60;27.77;101595.03;4915999;29;20032;-44
2022/04/10 02:08:05;;;;;;;2.00;1.50;;;;;;;25.56;27.79;101601.06;4916432;29;20032;-45
2022/04/10 02:10:35;;;;;;;2.60;1.63;;;;;;;25.59;27.77;101593.25;4916574;29;20024;-46
2022/04/10 02:13:04;;;;;;;3.47;2.05;;;;;;;25.63;27.54;101597.69;4916591;29;20151;-44
2022/04/10 02:15:32;;;;;;;2.30;1.40;;;;;;;25.65;27.66;101591.59;4916310;29;20115;-44
2022/04/10 02:18:00;;;;;;;3.47;1.60;;;;;;;25.59;27.65;101581.84;4918713;29;20036;-43
2022/04/10 02:20:29;;;;;;;2.25;1.45;;;;;;;25.50;27.71;101582.56;4919684;29;20032;-49
2022/04/10 02:22:58;;;;;;;2.42;1.50;;;;;;;25.55;27.62;101575.66;4919899;29;20040;-46
2022/04/10 02:25:27;;;;;;;2.08;1.27;;;;;;;25.57;27.40;101563.44;4919818;29;20020;-46
2022/04/10 02:27:56;;;;;;;3.22;1.80;;;;;;;25.53;27.58;101566.00;4919579;29;20032;-45
2022/04/10 02:30:24;;;;;;;2.92;1.50;;;;;;;25.51;27.85;101554.59;4919967;29;20028;-46
2022/04/10 02:32:53;;;;;;;2.33;1.40;;;;;;;25.53;27.85;101556.34;4936548;29;20118;-51
2022/04/10 02:35:22;;;;;;;1.83;1.33;;;;;;;25.49;27.85;101549.28;4938434;29;20105;-48
2022/04/10 02:37:50;;;;;;;2.08;1.50;;;;;;;25.48;27.54;101553.66;4937786;29;20032;-49
2022/04/10 02:40:19;;;;;;;2.63;1.23;;;;;;;25.42;27.62;101550.06;4938873;29;20028;-49
2022/04/10 02:42:47;;;;;;;4.15;1.70;;;;;;;25.44;28.06;101543.97;4937837;29;20608;-46
2022/04/10 02:45:15;;;;;;;2.17;1.10;;;;;;;25.46;27.96;101539.63;4937696;29;20448;-48
2022/04/10 02:47:44;;;;;;;2.95;1.40;;;;;;;25.47;27.64;101541.38;4938044;29;20426;-46
2022/04/10 02:50:13;;;;;;;2.83;1.27;;;;;;;25.41;27.77;101520.25;4937769;29;20039;-48
2022/04/10 02:52:42;;;;;;;3.20;1.85;;;;;;;25.47;27.87;101527.38;4922489;29;20039;-51
2022/04/10 02:55:11;;;;;;;1.95;1.17;;;;;;;25.46;27.69;101523.00;4937647;29;20023;-44
2022/04/10 02:57:39;;;;;;;2.55;1.30;;;;;;;25.48;27.40;101524.78;4938155;29;20098;-47
2022/04/10 03:00:10;;;;;;;2.40;1.30;;;;;;;25.40;27.96;101521.09;4921393;29;20039;-48
2022/04/10 03:02:40;;;;;;;3.17;1.50;;;;;;;25.41;27.87;101516.75;4938217;29;20114;-45
2022/04/10 03:05:09;;;;;;;2.30;1.20;;;;;;;25.41;27.83;101522.84;4937860;29;20024;-51
2022/04/10 03:07:38;;;;;;;2.38;1.58;;;;;;;25.33;27.69;101514.88;4921234;29;20039;-44
2022/04/10 03:10:07;;;;;;;2.03;1.33;;;;;;;25.43;27.75;101522.94;4937762;29;20390;-47
2022/04/10 03:15:57;;;;;;;4.30;1.45;;;;;;;25.34;27.72;101521.88;4937347;29;20071;-51
2022/04/10 03:18:26;;;;;;;2.58;1.30;;;;;;;25.40;27.78;101518.47;4937578;29;20032;-48
2022/04/10 03:20:54;;;;;;;2.17;1.15;;;;;;;25.32;27.84;101520.09;4937671;29;20027;-44
2022/04/10 03:23:23;;;;;;;3.28;1.20;;;;;;;25.33;27.77;101522.75;4937793;29;20050;-47
2022/04/10 03:25:51;;;;;;;3.45;1.50;;;;;;;25.36;28.00;101521.03;4937570;29;20560;-45
2022/04/10 03:28:20;;;;;;;2.30;1.10;;;;;;;25.38;27.87;101512.34;4937790;29;20072;-47
2022/04/10 03:30:48;;;;;;;2.15;1.10;;;;;;;25.36;27.62;101513.16;4937092;29;20038;-52
2022/04/10 03:33:17;;;;;;;2.40;1.40;;;;;;;25.37;27.92;101517.53;4918452;29;20091;-45
2022/04/10 03:35:45;;;;;;;2.45;1.10;;;;;;;25.38;27.66;101514.06;4901334;29;20038;-46
2022/04/10 03:38:14;;;;;;;2.33;1.20;;;;;;;25.35;27.78;101509.66;4917891;29;20040;-44
2022/04/10 03:40:42;;;;;;;2.50;1.27;;;;;;;25.34;27.66;101503.50;4918677;29;20051;-47
2022/04/10 03:43:11;;;;;;;2.72;1.40;;;;;;;25.30;28.01;101514.84;4918287;29;20063;-45
2022/04/10 03:45:41;;;;;;;1.73;0.98;;;;;;;25.29;27.69;101509.53;4918121;29;20035;-46
2022/04/10 03:48:10;;;;;;;1.90;1.20;;;;;;;25.29;28.00;101506.91;4918386;29;20506;-45
2022/04/10 03:50:39;;;;;;;1.90;1.00;;;;;;;25.24;28.04;101516.44;4917998;29;20028;-44
2022/04/10 03:53:07;;;;;;;3.63;1.35;;;;;;;25.25;27.95;101518.22;4918067;29;20087;-46
2022/04/10 03:55:36;;;;;;;3.50;1.10;;;;;;;25.29;27.92;101515.69;4918148;29;20064;-47
2022/04/10 03:58:05;;;;;;;1.65;1.08;;;;;;;25.28;28.00;101518.28;4918038;29;20606;-43
2022/04/10 04:00:33;;;;;;;2.20;1.13;;;;;;;25.29;27.76;101513.06;4918349;29;20028;-50
2022/04/10 04:03:01;;;;;;;1.42;0.93;;;;;;;25.25;28.10;101519.13;4918718;29;20020;-46
2022/04/10 04:05:30;;;;;;;2.40;1.10;;;;;;;25.24;28.16;101519.97;4917907;29;20088;-48
2022/04/10 04:08:01;;;;;;;2.88;1.10;;;;;;;25.23;28.00;101523.47;4917322;29;20032;-44
2022/04/10 04:10:29;;;;;;;1.02;0.73;;;;;;;25.23;27.98;101517.34;4917943;29;20121;-44
2022/04/10 04:12:58;;;;;;;2.40;1.20;;;;;;;25.24;27.82;101516.44;4917801;29;20028;-46
2022/04/10 04:15:27;;;;;;;2.15;1.00;;;;;;;25.22;27.90;101508.56;4917875;29;20442;-44
2022/04/10 04:17:55;;;;;;;1.40;0.70;;;;;;;25.25;27.59;101505.09;4917873;29;20509;-45
2022/04/10 04:20:23;;;;;;;2.30;0.98;;;;;;;25.23;28.16;101501.59;4918045;29;20043;-44
2022/04/10 04:22:53;;;;;;;2.40;0.98;;;;;;;25.15;28.16;101497.06;4917222;29;20052;-43
2022/04/10 04:25:22;;;;;;;1.55;0.82;;;;;;;25.14;27.80;101491.81;4917912;29;20103;-48
2022/04/10 04:27:51;;;;;;;1.20;0.80;;;;;;;25.17;28.07;101494.47;4917186;29;20083;-48
2022/04/10 04:30:19;;;;;;;1.80;1.10;;;;;;;25.16;28.14;101488.34;4917421;29;20032;-45
2022/04/10 04:32:48;;;;;;;1.70;0.95;;;;;;;25.18;27.74;101478.75;4917354;29;20052;-44
2022/04/10 04:35:16;;;;;;;1.58;0.70;;;;;;;25.15;27.79;101481.31;4917285;29;20607;-45
2022/04/10 04:37:45;;;;;;;3.33;1.15;;;;;;;25.16;27.81;101469.97;4917166;29;20033;-47
2022/04/10 04:40:15;;;;;;;1.90;1.00;;;;;;;25.16;27.94;101466.44;4916733;29;20028;-44
2022/04/10 04:42:44;;;;;;;1.75;0.70;;;;;;;25.20;27.67;101467.41;4917282;29;20028;-48
2022/04/10 04:45:12;;;;;;;2.25;0.90;;;;;;;25.14;28.16;101466.44;4917000;29;20115;-49
2022/04/10 04:47:41;;;;;;;2.75;1.10;;;;;;;25.22;27.78;101470.94;4917138;29;20028;-46
2022/04/10 04:50:09;;;;;;;1.45;0.80;;;;;;;25.16;27.84;101463.81;4900483;29;20596;-47
2022/04/10 04:52:38;;;;;;;2.30;1.15;;;;;;;25.15;27.73;101464.72;4917096;29;20458;-43
2022/04/10 04:55:07;;;;;;;1.70;0.98;;;;;;;25.09;28.16;101468.09;4916458;29;20443;-44
2022/04/10 04:57:35;;;;;;;1.95;1.10;;;;;;;25.08;27.92;101462.81;4900105;29;20036;-45
2022/04/10 05:00:04;;;;;;;2.45;1.30;;;;;;;25.09;28.20;101467.22;4916376;29;20473;-44
2022/04/10 05:02:33;;;;;;;2.13;1.10;;;;;;;25.10;28.14;101461.97;4917363;29;20111;-43
2022/04/10 05:05:01;;;;;;;2.03;1.00;;;;;;;25.14;27.77;101463.81;4916953;29;20032;-44
2022/04/10 05:07:30;;;;;;;2.15;0.90;;;;;;;25.09;27.96;101460.22;4900784;29;20027;-50
2022/04/10 05:09:58;;;;;;;1.50;0.85;;;;;;;25.13;27.90;101471.66;4917256;29;20051;-45
2022/04/10 05:12:27;;;;;;;2.50;0.80;;;;;;;25.09;28.05;101475.09;4917349;29;20024;-45
2022/04/10 05:14:56;;;;;;;1.13;0.90;;;;;;;25.10;27.85;101480.34;4916647;29;20466;-51
2022/04/10 05:17:26;;;;;;;1.83;1.08;;;;;;;25.08;27.87;101483.81;4899655;29;20108;-47
2022/04/10 05:19:55;;;;;;;2.38;1.02;;;;;;;25.08;28.12;101478.56;4916551;29;20040;-46
2022/04/10 05:22:22;;;;;;;1.70;0.77;;;;;;;25.14;28.04;101481.31;4916991;29;20069;-47
2022/04/10 05:24:51;;;;;;;1.35;0.70;;;;;;;25.09;28.30;101485.59;4916874;29;20024;-46
2022/04/10 05:27:19;;;;;;;1.65;0.80;;;;;;;25.03;28.00;101476.75;4916873;29;20100;-48
2022/04/10 05:29:48;;;;;;;2.90;0.90;;;;;;;25.04;28.28;101488.16;4916907;29;20032;-47
2022/04/10 05:32:16;;;;;;;1.35;0.90;;;;;;;25.00;28.22;101491.56;4916770;29;20048;-46
2022/04/10 05:34:45;;;;;;;1.33;0.80;;;;;;;25.03;28.04;101489.88;4899633;29;20032;-46
2022/04/10 05:37:14;;;;;;;2.47;1.00;;;;;;;25.09;27.70;101490.84;4916681;29;20123;-50
2022/04/10 05:39:43;;;;;;;2.22;0.68;;;;;;;25.06;28.05;101490.78;4900561;29;20032;-43
2022/04/10 05:42:12;;;;;;;1.85;0.68;;;;;;;25.03;28.27;101495.13;4916741;29;20466;-47
2022/04/10 05:44:40;;;;;;;2.53;1.02;;;;;;;25.06;27.97;101496.94;4916929;29;20072;-46
2022/04/10 05:47:09;;;;;;;1.70;0.75;;;;;;;25.06;28.01;101493.41;4916734;29;20067;-50
2022/04/10 05:49:38;;;;;;;1.48;0.75;;;;;;;25.03;27.87;101494.25;4917206;29;20054;-48
2022/04/10 05:52:07;;;;;;;2.15;1.02;;;;;;;24.99;28.03;101490.69;4918023;29;20029;-47
2022/04/10 05:54:36;;;;;;;1.77;0.75;;;;;;;25.01;27.77;101488.97;4920272;29;20110;-44
2022/04/10 05:57:04;;;;;;;1.50;0.70;;;;;;;25.03;27.87;101475.88;4920471;29;20056;-50
2022/04/10 05:59:33;;;;;;;1.52;0.90;;;;;;;25.03;28.00;101475.88;4920288;29;20032;-51
2022/04/10 06:02:02;;;;;;;2.35;1.05;;;;;;;25.06;28.15;101481.19;4920346;29;20434;-50
2022/04/10 06:04:30;;;;;;;2.67;0.90;;;;;;;25.04;28.11;101475.03;4919847;29;20051;-46
2022/04/10 06:06:59;;;;;;;2.22;0.80;;;;;;;24.82;28.13;101445.78;4920466;29;20031;-48
2022/04/10 06:09:28;;;;;;;3.03;0.90;;;;;;;25.05;27.75;101473.28;4920159;29;20378;-54
2022/04/10 06:11:56;;;;;;;5.22;1.00;;;;;;;25.02;27.88;101463.63;4919862;29;20060;-50
2022/04/10 06:14:23;;;;;;;2.00;0.90;;;;;;;25.05;27.93;101479.41;4919895;29;20434;-47
2022/04/10 06:16:51;;;;;;;1.90;0.90;;;;;;;25.03;28.03;101481.13;4920146;29;20028;-52
2022/04/10 06:19:20;;;;;;;1.85;0.75;;;;;;;25.06;27.84;101485.53;4920183;29;20025;-52
2022/04/10 06:21:49;;;;;;;1.48;0.80;;;;;;;25.05;28.26;101481.16;4919545;29;20062;-47
2022/04/10 06:24:17;;;;;;;1.80;0.75;;;;;;;25.07;27.94;101485.56;4919736;29;20047;-44
2022/04/10 06:26:48;;;;;;;1.50;1.00;;;;;;;25.08;27.97;101489.09;4919734;29;20458;-50
2022/04/10 06:29:17;;;;;;;1.52;0.80;;;;;;;25.05;27.91;101494.28;4919649;29;20435;-49
2022/04/10 06:31:46;;;;;;;1.65;0.73;;;;;;;25.03;28.03;101481.13;4919493;29;20048;-50
2022/04/10 06:34:15;;;;;;;1.40;0.80;;;;;;;25.03;27.98;101481.13;4919435;29;20059;-45
2022/04/10 06:36:43;;;;;;;2.15;1.15;;;;;;;25.03;28.39;101487.25;4919920;29;20509;-47
2022/04/10 06:39:12;;;;;;;3.40;0.85;;;;;;;25.07;27.91;101490.81;4919870;29;20057;-50
2022/04/10 06:41:41;;;;;;;1.38;0.73;;;;;;;25.04;28.36;101496.03;4902483;29;20032;-46
2022/04/10 06:44:09;;;;;;;1.80;0.80;;;;;;;25.09;28.16;101499.59;4902480;29;20068;-50
2022/04/10 06:46:37;;;;;;;1.10;0.82;;;;;;;25.07;28.36;101497.81;4919247;29;20426;-49
2022/04/10 06:49:04;;;;;;;1.88;0.80;;;;;;;25.05;28.29;101497.78;4919277;29;20055;-45
2022/04/10 06:51:33;;;;;;;1.98;0.73;;;;;;;25.09;28.67;101498.72;4919114;29;20032;-48
2022/04/10 06:54:02;;;;;;;1.95;0.80;;;;;;;25.10;28.19;101492.63;4919149;29;20032;-51
2022/04/10 06:56:29;;;;;;;1.65;0.82;;;;;;;25.13;28.41;101492.69;4919360;29;20036;-47
2022/04/10 06:58:57;;;;;;;1.52;0.68;;;;;;;25.14;28.55;101483.94;4919318;29;20478;-49
2022/04/10 07:01:26;;;;;;;2.00;0.80;;;;;;;25.20;28.51;101489.28;4919089;29;20028;-48
2022/04/10 07:03:54;;;;;;;2.08;0.80;;;;;;;25.20;28.51;101493.66;4918526;29;20038;-50
2022/04/10 07:06:23;;;;;;;2.17;0.80;;;;;;;25.22;28.48;101484.94;4902181;29;20024;-46
2022/04/10 07:08:51;;;;;;;1.20;0.60;;;;;;;25.28;28.66;101478.88;4918778;29;20422;-50
2022/04/10 07:11:20;;;;;;;1.85;0.88;;;;;;;25.31;28.38;101481.56;4918697;29;20065;-52
2022/04/10 07:13:48;;;;;;;1.83;0.68;;;;;;;25.34;28.34;101472.00;4901989;29;20395;-45
2022/04/10 07:16:17;;;;;;;3.38;0.70;;;;;;;25.37;28.50;101467.66;4919178;29;20032;-52
2022/04/10 07:18:44;;;;;;;3.78;0.80;;;;;;;25.38;28.76;101467.69;4919092;29;20171;-50
2022/04/10 07:21:12;;;;;;;1.98;0.80;;;;;;;25.40;28.55;101459.81;4919182;29;20051;-47
2022/04/10 07:23:41;;;;;;;3.03;1.13;;;;;;;25.43;28.47;101468.66;4918580;29;20036;-50
2022/04/10 07:26:11;;;;;;;1.50;0.75;;;;;;;25.46;28.91;101465.22;4918825;29;20028;-50
2022/04/10 07:28:40;;;;;;;1.02;0.52;;;;;;;25.47;28.56;101454.72;4919152;29;20487;-50
2022/04/10 07:31:10;;;;;;;2.90;0.77;;;;;;;25.50;28.84;101467.00;4918402;29;20066;-47
2022/04/10 07:33:39;;;;;;;2.38;0.75;;;;;;;25.53;28.47;101459.16;4901696;29;20039;-44
2022/04/10 07:36:07;;;;;;;1.65;0.70;;;;;;;25.48;28.51;101445.09;4901674;29;20028;-43
2022/04/10 07:38:36;;;;;;;2.70;0.80;;;;;;;25.58;29.02;101453.97;4918014;29;20039;-43
2022/04/10 07:41:05;;;;;;;3.30;1.00;;;;;;;25.62;28.78;101453.16;4918325;29;20140;-46
2022/04/10 07:43:34;;;;;;;2.22;0.70;;;;;;;25.66;28.98;101448.81;4918417;29;20111;-49
2022/04/10 07:48:49;;;;;;;1.88;0.80;;;;;;;25.70;28.58;101438.38;4911625;29;20088;-51
2022/04/10 07:51:18;;;;;;;1.35;0.70;;;;;;;25.75;28.80;101435.81;4917727;29;20111;-50
2022/04/10 07:53:46;;;;;;;1.60;0.98;;;;;;;25.77;28.75;101436.72;4918061;29;20449;-48
2022/04/10 07:56:14;;;;;;;1.33;0.90;;;;;;;25.79;28.89;101432.38;4918096;29;20028;-45
2022/04/10 07:58:41;;;;;;;2.92;0.98;;;;;;;25.81;28.64;101433.28;4918182;29;20031;-51
2022/04/10 08:01:10;;;;;;;1.95;0.80;;;;;;;25.83;28.53;101435.91;4901503;29;20024;-48
2022/04/10 08:03:40;;;;;;;1.35;1.00;;;;;;;25.84;28.49;101425.41;4901365;29;20032;-48
2022/04/10 08:06:09;;;;;;;2.08;0.90;;;;;;;25.86;28.47;101421.06;4917850;29;20028;-50
2022/04/10 08:08:37;;;;;;;2.17;0.80;;;;;;;25.89;28.82;101422.84;4917818;29;20043;-49
2022/04/10 08:11:07;;;;;;;2.03;0.90;;;;;;;25.90;28.81;101414.97;4917331;29;20036;-44
2022/04/10 08:13:35;;;;;;;2.10;0.68;;;;;;;25.92;28.92;101410.63;4917643;29;20048;-44
2022/04/10 08:16:02;;;;;;;2.42;1.20;;;;;;;25.96;28.88;101403.66;4916632;29;20024;-44
2022/04/10 08:18:30;;;;;;;1.95;0.70;;;;;;;25.99;28.77;101405.41;4917724;29;20107;-44
2022/04/10 08:20:59;;;;;;;2.03;0.80;;;;;;;26.01;28.91;101407.22;4917694;29;20467;-44
2022/04/10 08:23:27;;;;;;;1.85;0.85;;;;;;;26.02;28.70;101405.47;4917487;29;20032;-50
2022/04/10 08:25:56;;;;;;;2.95;1.17;;;;;;;26.01;28.64;101407.22;4917463;29;20482;-44
2022/04/10 08:28:28;;;;;;;1.67;0.65;;;;;;;26.04;28.75;101406.38;4917729;29;20379;-47
2022/04/10 08:30:57;;;;;;;1.98;0.80;;;;;;;26.08;28.94;101410.81;4917232;29;20048;-44
2022/04/10 08:33:25;;;;;;;2.35;0.93;;;;;;;26.09;28.99;101408.19;4917082;29;20068;-44
2022/04/10 08:35:54;;;;;;;3.22;0.80;;;;;;;26.09;29.02;101408.19;4917204;29;20039;-44
2022/04/10 08:38:22;;;;;;;2.25;0.80;;;;;;;26.17;29.12;101404.78;4917319;29;20505;-44
2022/04/10 08:40:51;;;;;;;3.33;1.42;;;;;;;26.15;29.06;101410.00;4917373;29;20043;-44
2022/04/10 08:43:19;;;;;;;3.60;1.10;;;;;;;26.21;28.78;101398.72;4900601;29;20031;-46
2022/04/10 08:45:48;;;;;;;2.30;0.85;;;;;;;26.23;28.80;101400.47;4900663;29;20111;-45
2022/04/10 08:48:17;;;;;;;4.55;1.00;;;;;;;26.27;28.97;101393.50;4917282;29;20036;-44
2022/04/10 08:50:46;;;;;;;4.00;1.50;;;;;;;26.26;29.09;101391.72;4917515;29;20374;-44
2022/04/10 08:53:16;;;;;;;3.03;1.00;;;;;;;26.30;29.01;101387.41;4916453;29;20032;-44
2022/04/10 08:55:44;;;;;;;3.45;0.88;;;;;;;26.32;28.77;101383.00;4917123;29;20032;-44
2022/04/10 08:58:13;;;;;;;2.42;1.10;;;;;;;26.31;29.07;101387.41;4916906;29;20068;-45
2022/04/10 09:00:46;;;;;;;3.10;0.90;;;;;;;26.33;28.70;101387.41;4916710;29;20447;-44
2022/04/10 09:03:16;;;;;;;3.30;1.13;;;;;;;26.37;28.90;101384.84;4917098;29;20446;-42
2022/04/10 09:06:06;;;;;;;3.85;1.30;;;;;;;26.41;28.93;101400.63;4917151;29;20483;-43
2022/04/10 09:08:33;;;;;;;3.92;1.30;;;;;;;26.40;28.83;101389.25;4917436;29;20032;-43
2022/04/10 09:11:04;;;;;;;2.92;1.17;;;;;;;26.39;29.05;101390.97;4917265;29;20087;-43
2022/04/10 09:13:37;;;;;;;2.50;1.00;;;;;;;26.45;28.80;101379.66;4917061;29;20035;-43
2022/04/10 09:16:21;;;;;;;4.07;1.23;;;;;;;26.45;28.79;101384.91;4916937;29;20032;-44
2022/04/10 09:19:12;;;;;;;2.80;1.23;;;;;;;26.47;28.87;101388.44;4917179;29;20036;-43
2022/04/10 09:21:43;;;;;;;4.20;1.45;;;;;;;26.53;28.52;101375.31;4916627;29;20346;-48
2022/04/10 09:24:13;;;;;;;4.35;1.35;;;;;;;26.52;28.57;101378.81;4917005;29;20055;-43
2022/04/10 09:27:03;;;;;;;2.83;1.00;;;;;;;26.52;28.56;101381.44;4919129;29;20043;-43
2022/04/10 09:29:33;;;;;;;4.43;1.27;;;;;;;26.51;28.49;101390.22;4904482;29;20032;-43
2022/04/10 09:32:04;;;;;;;2.67;1.13;;;;;;;26.50;28.29;101388.44;4912969;29;20103;-44
2022/04/10 09:34:35;;;;;;;2.70;1.00;;;;;;;26.50;28.31;101388.44;4922754;29;20366;-44
2022/04/10 09:37:06;;;;;;;2.53;0.80;;;;;;;26.54;28.46;101386.75;4939482;29;20031;-44
2022/04/10 09:39:36;;;;;;;5.53;1.20;;;;;;;26.54;28.25;101386.75;4939905;29;20047;-44
2022/04/10 09:42:07;;;;;;;2.78;0.90;;;;;;;26.58;28.43;101392.91;4939503;29;20036;-43
2022/04/10 09:44:37;;;;;;;3.55;1.33;;;;;;;26.61;28.32;101392.94;4940041;29;20031;-43
2022/04/10 09:47:11;;;;;;;3.05;1.00;;;;;;;26.58;28.22;101400.81;4939538;29;20032;-44
2022/04/10 09:49:44;;;;;;;1.98;0.70;;;;;;;26.61;28.28;101400.84;4939893;29;20023;-43
2022/04/10 09:52:15;;;;;;;3.47;1.23;;;;;;;26.59;28.18;101398.16;4922260;29;20132;-44
2022/04/10 09:54:46;;;;;;;3.72;1.38;;;;;;;26.60;28.24;101404.34;4939118;29;20024;-44
2022/04/10 09:57:18;;;;;;;4.97;1.10;;;;;;;26.59;28.49;101405.19;4938919;29;20023;-44
2022/04/10 09:59:48;;;;;;;6.97;0.98;;;;;;;26.60;28.14;101406.97;4939375;29;20028;-43
2022/04/10 10:02:21;;;;;;;5.25;1.23;;;;;;;26.67;28.22;101401.75;4939050;29;20031;-43
2022/04/10 10:04:50;;;;;;;3.83;1.00;;;;;;;26.61;28.38;101391.19;4939594;29;20110;-43
2022/04/10 10:07:21;;;;;;;3.72;1.17;;;;;;;26.66;28.20;101396.47;4939050;29;20085;-43
2022/04/10 10:09:50;;;;;;;3.38;1.38;;;;;;;26.67;28.21;101398.22;4939050;29;20035;-45
2022/04/10 10:12:19;;;;;;;2.97;0.95;;;;;;;26.60;28.30;101385.91;4939244;29;20019;-44
2022/04/10 10:14:48;;;;;;;2.75;0.80;;;;;;;26.65;28.11;101377.19;4938682;29;20434;-43
2022/04/10 10:17:18;;;;;;;3.65;0.98;;;;;;;26.64;28.14;101377.19;4938744;29;20030;-44
2022/04/10 10:19:47;;;;;;;1.88;0.80;;;;;;;26.65;28.21;101373.66;4921326;29;20123;-44
2022/04/10 10:22:17;;;;;;;6.20;0.95;;;;;;;26.67;27.99;101379.81;4938209;29;20039;-45
2022/04/10 10:24:51;;;;;;;3.00;1.00;;;;;;;26.66;28.00;101378.06;4938749;29;20103;-47
2022/04/10 10:27:33;;;;;;;2.58;0.90;;;;;;;26.67;27.85;101374.56;4938747;29;20060;-45
2022/04/10 10:30:23;;;;;;;3.20;1.20;;;;;;;26.62;27.78;101373.66;4938580;29;20478;-44
2022/04/10 10:32:56;;;;;;;4.38;1.20;;;;;;;26.63;27.92;101380.69;4933174;29;20048;-49
2022/04/10 10:35:46;;;;;;;2.92;0.90;;;;;;;26.63;27.60;101378.06;4938553;29;20032;-45
2022/04/10 10:38:33;;;;;;;2.53;0.90;;;;;;;26.63;27.57;101367.53;4920953;29;20063;-44
2022/04/10 10:41:20;;;;;;;4.50;0.85;;;;;;;26.62;27.44;101366.63;4921954;29;20028;-50
2022/04/10 10:43:49;;;;;;;3.92;1.40;;;;;;;26.61;27.35;101375.38;4938235;29;20031;-45
2022/04/10 10:46:32;;;;;;;4.38;1.48;;;;;;;26.59;27.82;101369.22;4938392;29;20031;-44
2022/04/10 10:49:20;;;;;;;3.10;0.95;;;;;;;26.65;27.93;101365.75;4922180;29;20028;-48
2022/04/10 10:51:49;;;;;;;3.92;1.02;;;;;;;26.63;27.55;101367.53;4938497;29;20064;-45
2022/04/10 10:54:28;;;;;;;3.83;0.93;;;;;;;26.64;27.49;101356.13;4938128;29;20034;-45
2022/04/10 10:56:56;;;;;;;2.05;0.63;;;;;;;26.62;27.76;101353.47;4938565;29;20027;-45
2022/04/10 10:59:35;;;;;;;2.38;0.75;;;;;;;26.65;27.86;101348.25;4938116;29;20068;-45
2022/04/10 11:02:06;;;;;;;3.38;1.15;;;;;;;26.64;27.81;101342.97;4937485;29;20028;-45
2022/04/10 11:04:46;;;;;;;3.85;1.00;;;;;;;26.63;27.72;101330.69;4921136;29;20127;-45
2022/04/10 11:07:13;;;;;;;2.25;0.82;;;;;;;26.65;27.52;101328.91;4938475;29;20036;-46
2022/04/10 11:10:01;;;;;;;2.50;1.10;;;;;;;26.65;27.35;101327.19;4937541;29;20114;-45
2022/04/10 11:12:33;;;;;;;4.22;1.58;;;;;;;26.64;27.34;101320.16;4937805;29;20367;-44
2022/04/10 11:15:13;;;;;;;3.95;1.00;;;;;;;26.59;27.40;101307.84;4937735;29;20043;-44
2022/04/10 11:17:42;;;;;;;3.00;1.00;;;;;;;26.61;27.38;101298.22;4921337;29;20444;-46
2022/04/10 11:20:12;;;;;;;3.63;1.00;;;;;;;26.60;27.25;101305.22;4921078;29;20036;-44
2022/04/10 11:23:00;;;;;;;3.75;0.90;;;;;;;26.63;27.11;101307.00;4937849;29;20066;-44
2022/04/10 11:25:28;;;;;;;5.10;1.25;;;;;;;26.56;27.13;101308.69;4921050;29;20051;-44
2022/04/10 11:27:58;;;;;;;2.30;0.70;;;;;;;26.54;27.49;101300.78;4937620;29;20031;-44
2022/04/10 11:30:31;;;;;;;4.82;1.15;;;;;;;26.56;27.22;101292.91;4937229;29;20401;-44
2022/04/10 11:33:00;;;;;;;4.28;1.10;;;;;;;26.60;27.36;101292.06;4920802;29;20106;-46
2022/04/10 11:35:55;;;;;;;3.63;0.98;;;;;;;26.61;27.22;101296.44;4937277;29;20075;-45
2022/04/10 11:38:25;;;;;;;2.92;0.77;;;;;;;26.60;27.47;101292.06;4920739;29;20447;-45
2022/04/10 11:40:54;;;;;;;3.03;0.90;;;;;;;26.60;27.30;101286.78;4937393;29;20040;-45
2022/04/10 11:43:23;;;;;;;2.60;0.85;;;;;;;26.62;27.27;101284.19;4937712;29;20028;-44